sensor_id;sensor_type;location;lat;lon;timestamp;pressure;altitude;pressure_sealevel;temperature;humidity
62978;BME280;49073;42.352;23.808;2022-08-19T00:01:35;94454.16;;;20.06;61.36
62978;BME280;49073;42.352;23.808;2022-08-19T00:04:36;94442.94;;;20.08;61.41
62978;BME280;49073;42.352;23.808;2022-08-19T00:07:37;94454.28;;;20.19;61.58
62978;BME280;49073;42.352;23.808;2022-08-19T00:10:38;94439.28;;;20.15;61.50
62978;BME280;49073;42.352;23.808;2022-08-19T00:13:39;94448.69;;;20.10;61.59
62978;BME280;49073;42.352;23.808;2022-08-19T00:16:41;94434.28;;;19.97;61.80
62978;BME280;49073;42.352;23.808;2022-08-19T00:19:43;94442.13;;;19.91;62.35
62978;BME280;49073;42.352;23.808;2022-08-19T00:22:44;94440.47;;;19.97;62.07
62978;BME280;49073;42.352;23.808;2022-08-19T00:25:45;94441.81;;;20.05;61.57
62978;BME280;49073;42.352;23.808;2022-08-19T00:28:46;94440.66;;;19.86;62.36
62978;BME280;49073;42.352;23.808;2022-08-19T00:31:47;94431.31;;;19.71;62.44
62978;BME280;49073;42.352;23.808;2022-08-19T00:34:48;94429.13;;;19.66;62.64
62978;BME280;49073;42.352;23.808;2022-08-19T00:37:49;94432.16;;;19.68;62.59
62978;BME280;49073;42.352;23.808;2022-08-19T00:40:50;94433.75;;;19.65;63.05
62978;BME280;49073;42.352;23.808;2022-08-19T00:44:08;94429.63;;;19.60;63.28
62978;BME280;49073;42.352;23.808;2022-08-19T00:47:09;94427.25;;;19.62;63.39
62978;BME280;49073;42.352;23.808;2022-08-19T00:50:15;94437.97;;;19.66;63.22
62978;BME280;49073;42.352;23.808;2022-08-19T00:53:20;94434.69;;;19.58;63.38
62978;BME280;49073;42.352;23.808;2022-08-19T00:56:22;94445.19;;;19.73;62.98
62978;BME280;49073;42.352;23.808;2022-08-19T00:59:23;94443.38;;;19.66;62.98
62978;BME280;49073;42.352;23.808;2022-08-19T01:02:29;94446.66;;;19.77;62.73
62978;BME280;49073;42.352;23.808;2022-08-19T01:05:30;94442.53;;;19.69;63.09
62978;BME280;49073;42.352;23.808;2022-08-19T01:08:31;94445.34;;;19.66;62.77
62978;BME280;49073;42.352;23.808;2022-08-19T01:11:35;94443.00;;;19.47;64.11
62978;BME280;49073;42.352;23.808;2022-08-19T01:14:37;94442.66;;;19.45;63.37
62978;BME280;49073;42.352;23.808;2022-08-19T01:17:40;94442.44;;;19.36;64.34
62978;BME280;49073;42.352;23.808;2022-08-19T01:20:44;94444.94;;;19.27;64.29
62978;BME280;49073;42.352;23.808;2022-08-19T01:23:45;94439.75;;;19.16;65.21
62978;BME280;49073;42.352;23.808;2022-08-19T01:26:47;94440.38;;;19.24;65.00
62978;BME280;49073;42.352;23.808;2022-08-19T01:29:48;94439.59;;;19.23;64.79
62978;BME280;49073;42.352;23.808;2022-08-19T01:32:50;94438.97;;;19.36;64.67
62978;BME280;49073;42.352;23.808;2022-08-19T01:35:51;94443.13;;;19.40;64.33
62978;BME280;49073;42.352;23.808;2022-08-19T01:38:52;94451.59;;;19.42;64.29
62978;BME280;49073;42.352;23.808;2022-08-19T01:41:54;94448.47;;;19.44;64.22
62978;BME280;49073;42.352;23.808;2022-08-19T01:44:55;94456.50;;;19.27;64.76
62978;BME280;49073;42.352;23.808;2022-08-19T01:47:57;94457.34;;;19.24;64.97
62978;BME280;49073;42.352;23.808;2022-08-19T01:50:57;94453.44;;;19.25;65.18
62978;BME280;49073;42.352;23.808;2022-08-19T01:53:58;94455.53;;;19.17;65.47
62978;BME280;49073;42.352;23.808;2022-08-19T01:57:06;94459.97;;;19.08;65.19
62978;BME280;49073;42.352;23.808;2022-08-19T02:00:11;94453.84;;;19.03;66.26
62978;BME280;49073;42.352;23.808;2022-08-19T02:03:13;94456.25;;;18.98;66.00
62978;BME280;49073;42.352;23.808;2022-08-19T02:06:13;94451.84;;;19.08;65.93
62978;BME280;49073;42.352;23.808;2022-08-19T02:09:14;94453.38;;;19.09;65.58
62978;BME280;49073;42.352;23.808;2022-08-19T02:12:14;94447.28;;;19.04;66.14
62978;BME280;49073;42.352;23.808;2022-08-19T02:15:18;94444.72;;;18.94;66.17
62978;BME280;49073;42.352;23.808;2022-08-19T02:18:19;94447.41;;;18.97;66.43
62978;BME280;49073;42.352;23.808;2022-08-19T02:21:23;94443.91;;;18.97;66.67
62978;BME280;49073;42.352;23.808;2022-08-19T02:24:24;94451.75;;;18.91;66.95
62978;BME280;49073;42.352;23.808;2022-08-19T02:27:28;94454.78;;;18.93;66.89
62978;BME280;49073;42.352;23.808;2022-08-19T02:30:28;94450.69;;;19.09;66.66
62978;BME280;49073;42.352;23.808;2022-08-19T02:33:29;94445.81;;;19.00;66.58
62978;BME280;49073;42.352;23.808;2022-08-19T02:36:30;94452.91;;;18.90;67.09
62978;BME280;49073;42.352;23.808;2022-08-19T02:39:31;94448.97;;;18.95;67.08
62978;BME280;49073;42.352;23.808;2022-08-19T02:42:31;94452.09;;;18.93;67.36
62978;BME280;49073;42.352;23.808;2022-08-19T02:45:38;94451.84;;;18.84;67.65
62978;BME280;49073;42.352;23.808;2022-08-19T02:48:41;94449.25;;;18.76;67.68
62978;BME280;49073;42.352;23.808;2022-08-19T02:51:44;94452.44;;;18.71;67.80
62978;BME280;49073;42.352;23.808;2022-08-19T02:54:45;94460.97;;;18.70;67.85
62978;BME280;49073;42.352;23.808;2022-08-19T02:57:46;94462.66;;;18.60;68.43
62978;BME280;49073;42.352;23.808;2022-08-19T03:00:50;94458.44;;;18.59;68.10
62978;BME280;49073;42.352;23.808;2022-08-19T03:03:51;94463.47;;;18.81;67.29
62978;BME280;49073;42.352;23.808;2022-08-19T03:06:52;94465.72;;;18.86;67.17
62978;BME280;49073;42.352;23.808;2022-08-19T03:09:52;94469.34;;;18.75;67.36
62978;BME280;49073;42.352;23.808;2022-08-19T03:12:53;94466.72;;;18.72;67.74
62978;BME280;49073;42.352;23.808;2022-08-19T03:15:54;94468.94;;;18.77;67.58
62978;BME280;49073;42.352;23.808;2022-08-19T03:18:56;94468.94;;;18.77;67.41
62978;BME280;49073;42.352;23.808;2022-08-19T03:21:59;94470.75;;;18.84;67.18
62978;BME280;49073;42.352;23.808;2022-08-19T03:24:59;94473.16;;;18.78;67.23
62978;BME280;49073;42.352;23.808;2022-08-19T03:28:00;94466.63;;;18.75;67.21
62978;BME280;49073;42.352;23.808;2022-08-19T03:31:04;94476.69;;;18.75;67.69
62978;BME280;49073;42.352;23.808;2022-08-19T03:34:05;94476.38;;;18.69;68.02
62978;BME280;49073;42.352;23.808;2022-08-19T03:37:08;94476.22;;;18.80;68.00
62978;BME280;49073;42.352;23.808;2022-08-19T03:40:09;94480.16;;;18.99;66.68
62978;BME280;49073;42.352;23.808;2022-08-19T03:43:10;94481.19;;;18.82;67.27
62978;BME280;49073;42.352;23.808;2022-08-19T03:46:17;94490.00;;;18.86;66.80
62978;BME280;49073;42.352;23.808;2022-08-19T03:49:19;94486.09;;;18.67;67.53
62978;BME280;49073;42.352;23.808;2022-08-19T03:52:20;94480.56;;;18.74;67.17
62978;BME280;49073;42.352;23.808;2022-08-19T03:55:20;94486.31;;;18.76;66.98
62978;BME280;49073;42.352;23.808;2022-08-19T03:58:22;94488.59;;;18.78;67.19
62978;BME280;49073;42.352;23.808;2022-08-19T04:01:25;94485.31;;;18.66;67.58
62978;BME280;49073;42.352;23.808;2022-08-19T04:04:28;94489.84;;;18.73;67.92
62978;BME280;49073;42.352;23.808;2022-08-19T04:07:29;94492.50;;;18.49;69.02
62978;BME280;49073;42.352;23.808;2022-08-19T04:10:30;94498.78;;;18.42;69.58
62978;BME280;49073;42.352;23.808;2022-08-19T04:13:30;94495.88;;;18.57;69.35
62978;BME280;49073;42.352;23.808;2022-08-19T04:16:31;94504.31;;;18.59;69.57
62978;BME280;49073;42.352;23.808;2022-08-19T04:19:33;94496.81;;;18.70;69.88
62978;BME280;49073;42.352;23.808;2022-08-19T04:22:34;94498.28;;;18.99;69.16
62978;BME280;49073;42.352;23.808;2022-08-19T04:25:43;94496.03;;;18.97;69.29
62978;BME280;49073;42.352;23.808;2022-08-19T04:28:44;94495.69;;;18.92;70.15
62978;BME280;49073;42.352;23.808;2022-08-19T04:31:45;94501.78;;;18.96;69.85
62978;BME280;49073;42.352;23.808;2022-08-19T04:34:46;94496.50;;;19.12;69.19
62978;BME280;49073;42.352;23.808;2022-08-19T04:37:46;94498.69;;;19.21;69.07
62978;BME280;49073;42.352;23.808;2022-08-19T04:40:49;94507.47;;;19.25;68.55
62978;BME280;49073;42.352;23.808;2022-08-19T04:44:10;94493.84;;;19.53;67.68
62978;BME280;49073;42.352;23.808;2022-08-19T04:47:11;94488.84;;;19.71;67.86
62978;BME280;49073;42.352;23.808;2022-08-19T04:50:11;94491.91;;;19.73;68.20
62978;BME280;49073;42.352;23.808;2022-08-19T04:53:12;94491.56;;;19.71;68.95
62978;BME280;49073;42.352;23.808;2022-08-19T04:56:15;94490.94;;;19.84;68.49
62978;BME280;49073;42.352;23.808;2022-08-19T04:59:18;94493.28;;;20.02;67.61
62978;BME280;49073;42.352;23.808;2022-08-19T05:02:19;94493.56;;;20.24;66.87
62978;BME280;49073;42.352;23.808;2022-08-19T05:05:20;94492.22;;;20.32;67.27
62978;BME280;49073;42.352;23.808;2022-08-19T05:08:21;94490.47;;;20.42;67.80
62978;BME280;49073;42.352;23.808;2022-08-19T05:11:30;94494.13;;;20.52;67.64
62978;BME280;49073;42.352;23.808;2022-08-19T05:14:31;94504.34;;;20.61;66.97
62978;BME280;49073;42.352;23.808;2022-08-19T05:17:32;94500.31;;;20.69;66.08
62978;BME280;49073;42.352;23.808;2022-08-19T05:20:33;94495.41;;;20.81;63.76
62978;BME280;49073;42.352;23.808;2022-08-19T05:23:52;94505.91;;;20.95;63.10
62978;BME280;49073;42.352;23.808;2022-08-19T05:26:54;94504.00;;;21.08;63.70
62978;BME280;49073;42.352;23.808;2022-08-19T05:29:56;94505.34;;;21.17;63.50
62978;BME280;49073;42.352;23.808;2022-08-19T05:32:58;94507.50;;;21.39;64.67
62978;BME280;49073;42.352;23.808;2022-08-19T05:35:59;94509.25;;;21.45;66.25
62978;BME280;49073;42.352;23.808;2022-08-19T05:39:02;94508.97;;;21.56;66.91
62978;BME280;49073;42.352;23.808;2022-08-19T05:42:07;94512.28;;;21.64;65.50
62978;BME280;49073;42.352;23.808;2022-08-19T05:45:08;94511.84;;;21.65;66.30
62978;BME280;49073;42.352;23.808;2022-08-19T05:48:10;94507.44;;;21.85;66.62
62978;BME280;49073;42.352;23.808;2022-08-19T05:51:12;94510.72;;;21.92;65.59
62978;BME280;49073;42.352;23.808;2022-08-19T05:54:12;94513.25;;;22.13;62.83
62978;BME280;49073;42.352;23.808;2022-08-19T05:57:14;94508.50;;;22.17;62.64
62978;BME280;49073;42.352;23.808;2022-08-19T06:00:15;94509.78;;;22.25;61.52
62978;BME280;49073;42.352;23.808;2022-08-19T06:03:16;94508.16;;;22.41;60.80
62978;BME280;49073;42.352;23.808;2022-08-19T06:06:18;94512.09;;;22.52;61.53
62978;BME280;49073;42.352;23.808;2022-08-19T06:09:21;94519.25;;;22.72;60.49
62978;BME280;49073;42.352;23.808;2022-08-19T06:12:22;94516.63;;;22.81;59.97
62978;BME280;49073;42.352;23.808;2022-08-19T06:15:28;94523.88;;;22.98;59.18
62978;BME280;49073;42.352;23.808;2022-08-19T06:18:29;94521.13;;;23.10;59.08
62978;BME280;49073;42.352;23.808;2022-08-19T06:21:30;94518.03;;;23.34;58.12
62978;BME280;49073;42.352;23.808;2022-08-19T06:24:30;94513.31;;;23.48;57.53
62978;BME280;49073;42.352;23.808;2022-08-19T06:27:32;94514.03;;;23.61;57.99
62978;BME280;49073;42.352;23.808;2022-08-19T06:30:33;94509.69;;;23.73;58.75
62978;BME280;49073;42.352;23.808;2022-08-19T06:33:34;94517.72;;;23.99;55.42
62978;BME280;49073;42.352;23.808;2022-08-19T06:36:37;94519.94;;;24.14;54.03
62978;BME280;49073;42.352;23.808;2022-08-19T06:39:41;94520.97;;;24.07;56.62
62978;BME280;49073;42.352;23.808;2022-08-19T06:42:42;94521.28;;;24.09;56.46
62978;BME280;49073;42.352;23.808;2022-08-19T06:45:43;94510.94;;;24.26;55.05
62978;BME280;49073;42.352;23.808;2022-08-19T06:48:44;94517.50;;;24.38;54.38
62978;BME280;49073;42.352;23.808;2022-08-19T06:51:46;94518.00;;;24.46;56.04
62978;BME280;49073;42.352;23.808;2022-08-19T06:54:47;94506.53;;;24.60;53.63
62978;BME280;49073;42.352;23.808;2022-08-19T06:57:49;94506.91;;;24.81;52.61
62978;BME280;49073;42.352;23.808;2022-08-19T07:00:51;94506.03;;;25.03;52.04
62978;BME280;49073;42.352;23.808;2022-08-19T07:03:52;94505.91;;;25.25;52.72
62978;BME280;49073;42.352;23.808;2022-08-19T07:07:20;94505.03;;;25.47;50.54
62978;BME280;49073;42.352;23.808;2022-08-19T07:10:21;94509.56;;;25.50;53.68
62978;BME280;49073;42.352;23.808;2022-08-19T07:13:22;94505.94;;;25.62;52.78
62978;BME280;49073;42.352;23.808;2022-08-19T07:16:22;94509.72;;;25.74;53.16
62978;BME280;49073;42.352;23.808;2022-08-19T07:19:25;94507.53;;;25.97;51.32
62978;BME280;49073;42.352;23.808;2022-08-19T07:22:29;94501.31;;;26.15;49.08
62978;BME280;49073;42.352;23.808;2022-08-19T07:25:29;94508.19;;;26.35;51.63
62978;BME280;49073;42.352;23.808;2022-08-19T07:28:30;94505.28;;;26.48;50.26
62978;BME280;49073;42.352;23.808;2022-08-19T07:31:30;94510.59;;;26.42;51.36
62978;BME280;49073;42.352;23.808;2022-08-19T07:34:32;94506.16;;;26.54;47.99
62978;BME280;49073;42.352;23.808;2022-08-19T07:37:37;94513.28;;;26.61;47.93
62978;BME280;49073;42.352;23.808;2022-08-19T07:40:38;94512.09;;;26.77;48.66
62978;BME280;49073;42.352;23.808;2022-08-19T07:43:40;94512.78;;;26.96;49.65
62978;BME280;49073;42.352;23.808;2022-08-19T07:46:45;94513.38;;;27.00;47.26
62978;BME280;49073;42.352;23.808;2022-08-19T07:49:46;94505.75;;;27.04;46.64
62978;BME280;49073;42.352;23.808;2022-08-19T07:52:48;94511.47;;;27.15;45.01
62978;BME280;49073;42.352;23.808;2022-08-19T07:55:50;94510.81;;;27.21;43.90
62978;BME280;49073;42.352;23.808;2022-08-19T07:58:52;94504.22;;;27.27;40.58
62978;BME280;49073;42.352;23.808;2022-08-19T08:01:53;94514.81;;;27.35;40.38
62978;BME280;49073;42.352;23.808;2022-08-19T08:04:53;94508.03;;;27.84;38.22
62978;BME280;49073;42.352;23.808;2022-08-19T08:08:13;94506.22;;;27.66;38.15
62978;BME280;49073;42.352;23.808;2022-08-19T08:11:46;94507.19;;;27.93;38.52
62978;BME280;49073;42.352;23.808;2022-08-19T08:14:51;94503.00;;;27.98;37.65
62978;BME280;49073;42.352;23.808;2022-08-19T08:17:51;94498.97;;;28.08;38.00
62978;BME280;49073;42.352;23.808;2022-08-19T08:20:52;94494.53;;;28.26;37.07
62978;BME280;49073;42.352;23.808;2022-08-19T08:23:53;94500.19;;;28.22;36.97
62978;BME280;49073;42.352;23.808;2022-08-19T08:26:57;94502.06;;;28.46;36.36
62978;BME280;49073;42.352;23.808;2022-08-19T08:29:58;94500.47;;;28.39;35.29
62978;BME280;49073;42.352;23.808;2022-08-19T08:32:59;94501.34;;;28.30;36.15
62978;BME280;49073;42.352;23.808;2022-08-19T08:36:00;94493.91;;;28.52;35.38
62978;BME280;49073;42.352;23.808;2022-08-19T08:39:00;94495.38;;;28.68;34.50
62978;BME280;49073;42.352;23.808;2022-08-19T08:42:24;94497.41;;;28.52;35.23
62978;BME280;49073;42.352;23.808;2022-08-19T08:45:28;94507.66;;;28.87;33.24
62978;BME280;49073;42.352;23.808;2022-08-19T08:48:41;94498.94;;;28.89;32.97
62978;BME280;49073;42.352;23.808;2022-08-19T08:55:41;94486.69;;;29.05;35.48
62978;BME280;49073;42.352;23.808;2022-08-19T09:14:35;94475.81;;;29.58;32.68
62978;BME280;49073;42.352;23.808;2022-08-19T09:21:39;94476.34;;;29.62;34.01
62978;BME280;49073;42.352;23.808;2022-08-19T09:24:39;94467.25;;;29.76;33.52
62978;BME280;49073;42.352;23.808;2022-08-19T09:27:43;94474.84;;;29.87;34.02
62978;BME280;49073;42.352;23.808;2022-08-19T09:30:44;94467.56;;;30.11;36.11
62978;BME280;49073;42.352;23.808;2022-08-19T09:33:45;94467.19;;;30.29;32.86
62978;BME280;49073;42.352;23.808;2022-08-19T09:36:46;94466.81;;;30.48;33.60
62978;BME280;49073;42.352;23.808;2022-08-19T09:39:47;94472.09;;;31.01;33.85
62978;BME280;49073;42.352;23.808;2022-08-19T09:42:47;94465.13;;;31.05;31.12
62978;BME280;49073;42.352;23.808;2022-08-19T09:45:48;94463.56;;;30.93;32.67
62978;BME280;49073;42.352;23.808;2022-08-19T09:48:49;94466.03;;;30.85;30.83
62978;BME280;49073;42.352;23.808;2022-08-19T09:51:52;94462.47;;;31.28;30.58
62978;BME280;49073;42.352;23.808;2022-08-19T09:54:56;94454.13;;;31.11;29.86
62978;BME280;49073;42.352;23.808;2022-08-19T09:57:57;94459.94;;;31.19;29.47
62978;BME280;49073;42.352;23.808;2022-08-19T10:01:00;94449.97;;;31.27;29.69
62978;BME280;49073;42.352;23.808;2022-08-19T10:04:01;94435.13;;;31.13;31.42
62978;BME280;49073;42.352;23.808;2022-08-19T10:07:04;94438.75;;;31.42;29.94
62978;BME280;49073;42.352;23.808;2022-08-19T10:10:06;94438.28;;;31.72;29.83
62978;BME280;49073;42.352;23.808;2022-08-19T10:13:07;94437.81;;;31.80;28.93
62978;BME280;49073;42.352;23.808;2022-08-19T10:16:11;94443.59;;;31.82;28.29
62978;BME280;49073;42.352;23.808;2022-08-19T10:19:11;94438.31;;;31.89;27.08
62978;BME280;49073;42.352;23.808;2022-08-19T10:22:12;94435.56;;;31.78;28.45
62978;BME280;49073;42.352;23.808;2022-08-19T10:25:13;94432.81;;;31.89;27.79
62978;BME280;49073;42.352;23.808;2022-08-19T10:28:16;94431.78;;;32.27;28.41
62978;BME280;49073;42.352;23.808;2022-08-19T10:31:23;94427.00;;;32.44;27.13
62978;BME280;49073;42.352;23.808;2022-08-19T10:34:24;94429.78;;;32.39;26.58
62978;BME280;49073;42.352;23.808;2022-08-19T10:37:24;94418.75;;;32.33;27.74
62978;BME280;49073;42.352;23.808;2022-08-19T10:40:28;94424.25;;;32.27;26.68
62978;BME280;49073;42.352;23.808;2022-08-19T10:43:28;94423.50;;;32.32;26.47
62978;BME280;49073;42.352;23.808;2022-08-19T10:46:29;94424.00;;;32.25;28.37
62978;BME280;49073;42.352;23.808;2022-08-19T10:49:33;94417.47;;;32.40;26.22
62978;BME280;49073;42.352;23.808;2022-08-19T10:52:54;94421.50;;;32.44;27.16
62978;BME280;49073;42.352;23.808;2022-08-19T10:55:54;94409.13;;;32.68;26.30
62978;BME280;49073;42.352;23.808;2022-08-19T10:59:14;94415.63;;;32.88;26.44
62978;BME280;49073;42.352;23.808;2022-08-19T11:02:15;94404.53;;;32.93;26.25
62978;BME280;49073;42.352;23.808;2022-08-19T11:05:16;94402.81;;;32.79;26.95
62978;BME280;49073;42.352;23.808;2022-08-19T11:08:17;94403.34;;;32.77;25.51
62978;BME280;49073;42.352;23.808;2022-08-19T11:11:18;94398.28;;;32.93;26.34
62978;BME280;49073;42.352;23.808;2022-08-19T11:14:20;94403.75;;;33.04;25.52
62978;BME280;49073;42.352;23.808;2022-08-19T11:17:21;94407.81;;;32.92;25.31
62978;BME280;49073;42.352;23.808;2022-08-19T11:20:23;94402.03;;;32.96;24.93
62978;BME280;49073;42.352;23.808;2022-08-19T11:23:24;94408.47;;;33.15;25.82
62978;BME280;49073;42.352;23.808;2022-08-19T11:26:25;94403.22;;;33.12;26.64
62978;BME280;49073;42.352;23.808;2022-08-19T11:29:25;94401.66;;;33.22;26.05
62978;BME280;49073;42.352;23.808;2022-08-19T11:32:28;94404.13;;;33.31;26.78
62978;BME280;49073;42.352;23.808;2022-08-19T11:35:28;94396.03;;;33.39;26.26
62978;BME280;49073;42.352;23.808;2022-08-19T11:38:29;94387.78;;;33.33;28.93
62978;BME280;49073;42.352;23.808;2022-08-19T11:41:30;94385.44;;;33.49;26.06
62978;BME280;49073;42.352;23.808;2022-08-19T11:44:30;94385.88;;;33.59;26.71
62978;BME280;49073;42.352;23.808;2022-08-19T11:47:31;94378.81;;;33.63;26.44
62978;BME280;49073;42.352;23.808;2022-08-19T11:50:31;94383.88;;;33.59;26.78
62978;BME280;49073;42.352;23.808;2022-08-19T11:53:33;94373.72;;;33.73;26.47
62978;BME280;49073;42.352;23.808;2022-08-19T11:56:36;94380.22;;;33.76;26.09
62978;BME280;49073;42.352;23.808;2022-08-19T11:59:37;94385.47;;;33.79;26.12
62978;BME280;49073;42.352;23.808;2022-08-19T12:02:38;94376.41;;;33.79;26.15
62978;BME280;49073;42.352;23.808;2022-08-19T12:05:39;94365.66;;;33.75;26.40
62978;BME280;49073;42.352;23.808;2022-08-19T12:08:41;94368.50;;;33.64;26.50
62978;BME280;49073;42.352;23.808;2022-08-19T12:11:42;94369.53;;;33.61;26.79
62978;BME280;49073;42.352;23.808;2022-08-19T12:14:43;94367.31;;;33.54;26.04
62978;BME280;49073;42.352;23.808;2022-08-19T12:17:45;94358.63;;;33.44;27.94
62978;BME280;49073;42.352;23.808;2022-08-19T12:20:45;94365.53;;;33.62;27.25
62978;BME280;49073;42.352;23.808;2022-08-19T12:23:49;94349.41;;;33.66;25.73
62978;BME280;49073;42.352;23.808;2022-08-19T12:26:49;94343.78;;;33.77;25.98
62978;BME280;49073;42.352;23.808;2022-08-19T12:29:50;94357.72;;;33.60;26.60
62978;BME280;49073;42.352;23.808;2022-08-19T12:32:51;94357.97;;;33.62;26.40
62978;BME280;49073;42.352;23.808;2022-08-19T12:35:51;94346.31;;;33.75;26.56
62978;BME280;49073;42.352;23.808;2022-08-19T12:38:52;94339.38;;;33.93;26.10
62978;BME280;49073;42.352;23.808;2022-08-19T12:41:53;94341.34;;;33.99;25.14
62978;BME280;49073;42.352;23.808;2022-08-19T13:55:49;94310.47;;;33.94;25.17
62978;BME280;49073;42.352;23.808;2022-08-19T13:58:52;94298.16;;;33.96;24.81
62978;BME280;49073;42.352;23.808;2022-08-19T14:01:58;94306.19;;;33.93;26.22
62978;BME280;49073;42.352;23.808;2022-08-19T14:04:58;94299.72;;;33.85;24.69
62978;BME280;49073;42.352;23.808;2022-08-19T14:07:59;94304.75;;;33.87;24.68
62978;BME280;49073;42.352;23.808;2022-08-19T14:11:00;94299.16;;;33.92;24.69
62978;BME280;49073;42.352;23.808;2022-08-19T14:14:01;94305.25;;;33.85;25.09
62978;BME280;49073;42.352;23.808;2022-08-19T14:17:01;94310.50;;;33.89;25.71
62978;BME280;49073;42.352;23.808;2022-08-19T14:20:08;94309.00;;;33.88;25.61
62978;BME280;49073;42.352;23.808;2022-08-19T14:23:10;94302.13;;;33.70;25.12
62978;BME280;49073;42.352;23.808;2022-08-19T14:26:14;94295.63;;;33.67;25.91
62978;BME280;49073;42.352;23.808;2022-08-19T14:29:15;94293.19;;;33.58;25.33
62978;BME280;49073;42.352;23.808;2022-08-19T14:32:16;94298.97;;;33.60;25.31
62978;BME280;49073;42.352;23.808;2022-08-19T14:35:17;94293.72;;;33.56;25.26
62978;BME280;49073;42.352;23.808;2022-08-19T14:38:18;94290.69;;;33.60;24.89
62978;BME280;49073;42.352;23.808;2022-08-19T14:41:22;94283.41;;;33.57;25.26
62978;BME280;49073;42.352;23.808;2022-08-19T14:44:23;94288.22;;;33.50;25.21
62978;BME280;49073;42.352;23.808;2022-08-19T14:47:24;94276.72;;;33.46;25.39
62978;BME280;49073;42.352;23.808;2022-08-19T14:50:25;94271.72;;;33.39;25.14
62978;BME280;49073;42.352;23.808;2022-08-19T14:53:25;94268.50;;;33.41;25.38
62978;BME280;49073;42.352;23.808;2022-08-19T14:56:28;94271.25;;;33.35;25.16
62978;BME280;49073;42.352;23.808;2022-08-19T14:59:30;94269.53;;;33.32;25.62
62978;BME280;49073;42.352;23.808;2022-08-19T15:02:31;94269.09;;;33.22;25.30
62978;BME280;49073;42.352;23.808;2022-08-19T15:05:31;94258.16;;;33.11;25.37
62978;BME280;49073;42.352;23.808;2022-08-19T15:08:34;94260.19;;;33.04;25.78
62978;BME280;49073;42.352;23.808;2022-08-19T15:11:36;94259.47;;;33.04;26.01
62978;BME280;49073;42.352;23.808;2022-08-19T15:14:40;94267.75;;;33.04;25.58
62978;BME280;49073;42.352;23.808;2022-08-19T15:17:45;94252.97;;;32.96;25.81
62978;BME280;49073;42.352;23.808;2022-08-19T15:20:47;94258.72;;;32.98;26.21
62978;BME280;49073;42.352;23.808;2022-08-19T15:23:49;94270.09;;;32.88;26.17
62978;BME280;49073;42.352;23.808;2022-08-19T15:26:49;94261.31;;;32.84;26.07
62978;BME280;49073;42.352;23.808;2022-08-19T15:29:50;94252.88;;;32.71;26.56
62978;BME280;49073;42.352;23.808;2022-08-19T15:32:51;94251.84;;;32.74;27.00
62978;BME280;49073;42.352;23.808;2022-08-19T15:35:52;94247.84;;;32.69;27.96
62978;BME280;49073;42.352;23.808;2022-08-19T15:38:56;94247.59;;;32.73;27.33
62978;BME280;49073;42.352;23.808;2022-08-19T15:41:57;94242.38;;;32.63;26.66
62978;BME280;49073;42.352;23.808;2022-08-19T15:45:00;94246.41;;;32.57;27.95
62978;BME280;49073;42.352;23.808;2022-08-19T15:48:02;94240.47;;;32.47;28.24
62978;BME280;49073;42.352;23.808;2022-08-19T15:51:03;94241.97;;;32.48;27.32
62978;BME280;49073;42.352;23.808;2022-08-19T15:54:06;94236.00;;;32.38;27.85
62978;BME280;49073;42.352;23.808;2022-08-19T15:57:07;94238.50;;;32.36;28.81
62978;BME280;49073;42.352;23.808;2022-08-19T16:00:25;94245.31;;;32.18;30.15
62978;BME280;49073;42.352;23.808;2022-08-19T16:04:05;94246.38;;;31.98;30.84
62978;BME280;49073;42.352;23.808;2022-08-19T16:07:24;94239.66;;;31.93;29.57
62978;BME280;49073;42.352;23.808;2022-08-19T16:10:25;94236.16;;;31.81;32.41
62978;BME280;49073;42.352;23.808;2022-08-19T16:13:26;94243.44;;;31.67;31.97
62978;BME280;49073;42.352;23.808;2022-08-19T16:16:30;94241.22;;;31.48;32.78
62978;BME280;49073;42.352;23.808;2022-08-19T16:19:31;94241.97;;;31.38;33.91
62978;BME280;49073;42.352;23.808;2022-08-19T16:22:32;94242.75;;;31.27;34.69
62978;BME280;49073;42.352;23.808;2022-08-19T16:25:33;94243.44;;;31.10;35.99
62978;BME280;49073;42.352;23.808;2022-08-19T16:28:35;94242.94;;;30.95;36.95
62978;BME280;49073;42.352;23.808;2022-08-19T16:31:36;94242.19;;;30.77;37.78
62978;BME280;49073;42.352;23.808;2022-08-19T16:34:40;94247.38;;;30.63;39.31
62978;BME280;49073;42.352;23.808;2022-08-19T16:37:41;94254.28;;;30.30;39.95
62978;BME280;49073;42.352;23.808;2022-08-19T16:40:42;94255.97;;;30.11;40.15
62978;BME280;49073;42.352;23.808;2022-08-19T16:43:42;94264.91;;;30.00;40.33
62978;BME280;49073;42.352;23.808;2022-08-19T16:46:43;94255.19;;;29.67;41.22
62978;BME280;49073;42.352;23.808;2022-08-19T16:49:46;94266.03;;;29.44;41.49
62978;BME280;49073;42.352;23.808;2022-08-19T16:52:46;94266.25;;;29.40;41.29
62978;BME280;49073;42.352;23.808;2022-08-19T16:55:48;94274.00;;;29.15;41.42
62978;BME280;49073;42.352;23.808;2022-08-19T16:58:53;94270.63;;;29.26;42.13
62978;BME280;49073;42.352;23.808;2022-08-19T17:01:53;94269.88;;;28.99;42.24
62978;BME280;49073;42.352;23.808;2022-08-19T17:04:54;94284.53;;;28.70;43.00
62978;BME280;49073;42.352;23.808;2022-08-19T17:07:54;94288.06;;;28.76;42.85
62978;BME280;49073;42.352;23.808;2022-08-19T17:10:56;94282.81;;;28.72;43.14
62978;BME280;49073;42.352;23.808;2022-08-19T17:13:58;94287.91;;;28.38;43.19
62978;BME280;49073;42.352;23.808;2022-08-19T17:16:58;94289.72;;;28.06;43.28
62978;BME280;49073;42.352;23.808;2022-08-19T17:20:00;94293.53;;;28.08;43.43
62978;BME280;49073;42.352;23.808;2022-08-19T17:23:03;94294.91;;;27.83;44.43
62978;BME280;49073;42.352;23.808;2022-08-19T17:26:05;94292.09;;;27.77;44.28
62978;BME280;49073;42.352;23.808;2022-08-19T17:29:06;94289.50;;;27.53;44.57